Thunder radar more information blitzortung!


Radar de pluja more information rain snow radar


Visita la nostra xarxa de llocs de meteo:

Template documentation
and downloads

And another site



No particular awareness of the weather is required.    There are no Weather-warnings

Pagina Historial Weather Underground text

Diari Resum Novembre 30, 2017 Unitats:  Imperial    Mètric   Tant
« Previous Dia
SegĂźent Dia »
Diari Setmana Mensual Anual Personalitzada
  Maxima: Minima: Media:
Temperatura: 53.6 °F 33.1 °F 41.5 °F
Punt de rosada: 32.2 °F 14 °F 23.9 °F
Humitat: 70 % 32 % 52 %
Wind Speed: 9.2 mph 0 mph 2 mph
RĂ fegues de vent: 9.2 mph - -
Vent:- - SSW
Pression baro: 30 in 29.8 in -
Precipitacions: 0 in    
Historical Graphs
 
 
Dades de taula per Novembre 30, 2017
Temps Temperatura Punt de rosada Pression baro Vent Wind Speed RĂ fegues de vent Humitat Rainfall Rate (Hourly)
00:05 37.6 °F 28 °F 29.8 in SW 2.9 mph 2.9 mph 68 % 0 in
00:20 37.2 °F 27.7 °F 29.8 in SW 1 mph 2 mph 68 % 0 in
00:25 37.2 °F 27.7 °F 29.8 in West 1 mph   68 % 0 in
00:30 37.2 °F 28 °F 29.8 in North 1 mph 2 mph 69 % 0 in
00:35 37.2 °F 28 °F 29.8 in NE 1 mph 2 mph 69 % 0 in
00:40 37 °F 28.2 °F 29.8 in NE 2 mph 2 mph 70 % 0 in
00:50 36.7 °F 27.9 °F 29.8 in North 1 mph 2 mph 70 % 0 in
00:55 36.7 °F 27.9 °F 29.8 in NNE 1 mph   70 % 0 in
01:00 36.7 °F 27.9 °F 29.8 in Calm   1 mph 70 % 0 in
01:05 36.7 °F 27.9 °F 29.8 in Calm     70 % 0 in
01:10 36.5 °F 27.7 °F 29.8 in South 1 mph 2 mph 70 % 0 in
01:20 36.5 °F 27.7 °F 29.8 in Calm     70 % 0 in
01:25 36.5 °F 27.7 °F 29.8 in Calm     70 % 0 in
01:45 37 °F 28.2 °F 29.8 in West 1 mph 2 mph 70 % 0 in
01:50 36.7 °F 27.5 °F 29.8 in WSW 2 mph 2 mph 69 % 0 in
01:55 36.7 °F 27.9 °F 29.8 in Calm   2 mph 70 % 0 in
02:00 37 °F 28.2 °F 29.8 in Calm   2 mph 70 % 0 in
02:05 37.9 °F 28.8 °F 29.8 in WSW 2 mph 2 mph 69 % 0 in
02:15 39 °F 29.3 °F 29.8 in ENE 1 mph 1 mph 68 % 0 in
02:20 38.8 °F 29.1 °F 29.8 in NE 1 mph 2 mph 68 % 0 in
02:25 37.8 °F 27.9 °F 29.8 in ENE 2 mph 2 mph 67 % 0 in
02:30 37.4 °F 27.3 °F 29.8 in Calm   2 mph 67 % 0 in
02:35 37 °F 27.1 °F 29.8 in SSE 1 mph 2 mph 67 % 0 in
02:45 36.7 °F 26.8 °F 29.8 in NW 1 mph 1 mph 67 % 0 in
02:50 36.5 °F 27 °F 29.8 in Calm   1 mph 68 % 0 in
02:55 36.7 °F 27.1 °F 29.8 in Calm     68 % 0 in
03:00 36.7 °F 27.1 °F 29.8 in Calm   2 mph 68 % 0 in
03:05 36.9 °F 27.3 °F 29.8 in Calm     68 % 0 in
03:10 37 °F 27.5 °F 29.8 in WNW 1 mph 1 mph 68 % 0 in
03:20 37 °F 27.5 °F 29.8 in Calm   1 mph 68 % 0 in
03:25 36.7 °F 27.1 °F 29.8 in Calm     68 % 0 in
03:30 36.9 °F 27.3 °F 29.8 in Calm     68 % 0 in
03:40 37 °F 27.5 °F 29.8 in Calm     68 % 0 in
03:45 36.7 °F 27.1 °F 29.8 in NNW 1 mph 1 mph 68 % 0 in
03:50 36.7 °F 27.1 °F 29.8 in NNW 1 mph 2 mph 68 % 0 in
03:55 36.7 °F 27.1 °F 29.8 in North 3 mph 3 mph 68 % 0 in
04:00 36.7 °F 27.1 °F 29.8 in NE 1 mph 3 mph 68 % 0 in
04:05 36.5 °F 27 °F 29.8 in NNE 1 mph 1 mph 68 % 0 in
04:10 36.5 °F 27 °F 29.8 in NE 1 mph 1 mph 68 % 0 in
04:15 36.3 °F 26.8 °F 29.8 in NNE 2 mph 2 mph 68 % 0 in
04:20 36.3 °F 26.8 °F 29.8 in North 2 mph 2 mph 68 % 0 in
04:25 36 °F 26.4 °F 29.8 in NNE 1 mph 2 mph 68 % 0 in
04:30 36 °F 26.4 °F 29.8 in NNE 1 mph 2 mph 68 % 0 in
04:35 35.8 °F 26.2 °F 29.8 in NNE 1 mph 1 mph 68 % 0 in
04:40 35.8 °F 26.2 °F 29.8 in NNE 1 mph 1 mph 68 % 0 in
04:45 35.6 °F 26.1 °F 29.8 in North 2 mph 2 mph 68 % 0 in
04:50 35.4 °F 25.9 °F 29.8 in NNW 1 mph 2 mph 68 % 0 in
04:55 35.4 °F 25.9 °F 29.8 in NW 1 mph 2 mph 68 % 0 in
05:00 35.2 °F 25.7 °F 29.8 in NW 1 mph 1 mph 68 % 0 in
05:05 35.2 °F 25.7 °F 29.8 in Calm     68 % 0 in
05:10 35.2 °F 25.7 °F 29.8 in Calm   1 mph 68 % 0 in
05:15 34.7 °F 25.2 °F 29.8 in West 2 mph 2 mph 68 % 0 in
05:20 34.7 °F 25.2 °F 29.8 in West 2 mph 2 mph 68 % 0 in
05:25 34.3 °F 25 °F 29.8 in Calm     68 % 0 in
05:30 34.3 °F 25 °F 29.8 in Calm     68 % 0 in
05:35 34.3 °F 25.2 °F 29.8 in Calm   2 mph 69 % 0 in
05:40 34.3 °F 25.2 °F 29.8 in NW 2 mph 2 mph 69 % 0 in
05:45 34.5 °F 25.3 °F 29.8 in NNW 1 mph   69 % 0 in
05:50 34.5 °F 25.3 °F 29.8 in NNW 1 mph 2 mph 69 % 0 in
05:55 34.3 °F 25.2 °F 29.8 in WNW 1 mph 1 mph 69 % 0 in
06:00 34.3 °F 25.2 °F 29.8 in NW 1 mph 1 mph 69 % 0 in
06:05 34.3 °F 25.2 °F 29.8 in WNW 1 mph   69 % 0 in
06:10 34.3 °F 25.2 °F 29.8 in West 1 mph   69 % 0 in
06:35 34.2 °F 24.6 °F 29.8 in Calm   1 mph 68 % 0 in
06:40 34.2 °F 24.6 °F 29.8 in NNW 1 mph 1 mph 68 % 0 in
06:45 34 °F 24.4 °F 29.8 in West 1 mph 1 mph 68 % 0 in
06:50 33.8 °F 24.4 °F 29.8 in Calm   1 mph 68 % 0 in
06:55 34 °F 24.4 °F 29.8 in Calm   1 mph 68 % 0 in
07:00 33.8 °F 24.4 °F 29.8 in Calm     68 % 0 in
07:05 33.8 °F 24.4 °F 29.8 in NW 1 mph 1 mph 68 % 0 in
07:10 33.4 °F 24.1 °F 29.8 in West 1 mph 2 mph 68 % 0 in
07:15 33.4 °F 24.1 °F 29.8 in West 1 mph 2 mph 68 % 0 in
07:20 33.3 °F 23.7 °F 29.8 in Calm     68 % 0 in
07:40 33.4 °F 24.1 °F 29.8 in Calm     68 % 0 in
07:45 33.4 °F 24.1 °F 29.8 in Calm     68 % 0 in
07:50 33.4 °F 24.1 °F 29.8 in Calm     68 % 0 in
07:55 33.4 °F 23.7 °F 29.8 in Calm   2 mph 67 % 0 in
08:00 33.4 °F 23.7 °F 29.8 in Calm     67 % 0 in
08:05 33.3 °F 23.5 °F 29.8 in WSW 1 mph 2 mph 67 % 0 in
08:10 33.3 °F 23.5 °F 29.8 in Calm   1 mph 67 % 0 in
08:15 33.1 °F 23.4 °F 29.8 in NW 1 mph 1 mph 67 % 0 in
08:20 33.3 °F 23.5 °F 29.9 in NW 1 mph 2 mph 67 % 0 in
08:30 34.2 °F 24.3 °F 29.9 in NNW 1 mph   67 % 0 in
08:35 34.7 °F 25 °F 29.9 in Calm   1 mph 67 % 0 in
08:40 34.9 °F 25 °F 29.9 in Calm     67 % 0 in
08:45 34.5 °F 24.3 °F 29.9 in West 1 mph 1 mph 66 % 0 in
09:00 36.3 °F 26.1 °F 29.9 in NNW 1 mph 3 mph 66 % 0 in
09:05 37.6 °F 27 °F 29.8 in NNW 1 mph 1 mph 65 % 0 in
09:15 37.9 °F 26.8 °F 29.9 in NNE 2 mph 2 mph 64 % 0 in
09:20 37.8 °F 26.8 °F 29.9 in NNE 2 mph 2 mph 64 % 0 in
09:30 38.3 °F 26.8 °F 29.9 in North 1 mph 2 mph 63 % 0 in
09:40 39.9 °F 28.2 °F 29.9 in Calm   1 mph 63 % 0 in
09:45 40.1 °F 28 °F 29.9 in ESE 1 mph 2 mph 62 % 0 in
09:50 40.1 °F 28 °F 29.9 in SSE 1 mph 2 mph 62 % 0 in
09:55 39.9 °F 27.5 °F 29.9 in Calm     61 % 0 in
10:00 39.9 °F 27.5 °F 29.9 in Calm   4 mph 61 % 0 in
10:05 40.8 °F 27.7 °F 29.9 in NE 2 mph 2 mph 59 % 0 in
10:10 41.4 °F 28 °F 29.9 in East 1 mph 2 mph 59 % 0 in
10:15 41.5 °F 28.2 °F 29.9 in East 1 mph 2 mph 59 % 0 in
10:20 41.9 °F 28.2 °F 29.9 in East 1 mph 2 mph 58 % 0 in
10:41 42.4 °F 27.9 °F 29.9 in WSW 1.4 mph 1.4 mph 56 % 0 in
10:46 43.3 °F 28.8 °F 29.9 in ESE 2.4 mph 2.4 mph 56 % 0 in
10:51 43.5 °F 28.8 °F 29.9 in North 2.3 mph 2.3 mph 56 % 0 in
10:56 43.3 °F 28.8 °F 29.9 in East 2.3 mph 2.3 mph 56 % 0 in
11:01 44.1 °F 28.9 °F 29.9 in East 2.3 mph 2.3 mph 55 % 0 in
11:06 44.2 °F 29.1 °F 29.9 in ENE 3.5 mph 3.5 mph 55 % 0 in
11:11 43.7 °F 28 °F 29.9 in NE 4.6 mph 4.6 mph 54 % 0 in
11:16 43.7 °F 28.6 °F 29.9 in ENE 3.5 mph 3.5 mph 55 % 0 in
11:21 44.2 °F 28.6 °F 29.9 in East 3.5 mph 3.5 mph 54 % 0 in
11:26 44.6 °F 28.9 °F 29.9 in ESE 3.5 mph 3.5 mph 54 % 0 in
11:31 45.1 °F 28.9 °F 29.9 in SSE 3.8 mph 3.8 mph 53 % 0 in
11:36 45 °F 28.8 °F 29.9 in ESE 2.3 mph 2.3 mph 53 % 0 in
11:41 45.9 °F 29.7 °F 29.9 in South 2.3 mph 2.3 mph 53 % 0 in
11:46 45.7 °F 28.9 °F 29.9 in ESE 4 mph 4 mph 52 % 0 in
11:51 45.9 °F 28.8 °F 29.9 in NE 3.5 mph 3.5 mph 51 % 0 in
11:56 46.2 °F 29.1 °F 29.9 in ENE 3.5 mph 3.5 mph 51 % 0 in
12:01 46.6 °F 28.9 °F 29.9 in ESE 3.5 mph 3.5 mph 50 % 0 in
12:06 46.4 °F 28.2 °F 29.9 in ESE 4.6 mph 4.6 mph 49 % 0 in
12:11 47.1 °F 29.5 °F 29.9 in SSE 2 mph   50 % 0 in
12:16 47.5 °F 29.3 °F 29.9 in SSE 2.3 mph 2.3 mph 49 % 0 in
12:21 47.7 °F 29.5 °F 29.9 in ESE 2.4 mph 2.4 mph 49 % 0 in
12:26 47.8 °F 29.7 °F 29.9 in ENE 5.8 mph 5.8 mph 49 % 0 in
12:31 48.4 °F 29.7 °F 29.9 in SSE 2.3 mph 2.3 mph 48 % 0 in
12:36 48.6 °F 29.7 °F 29.9 in ESE 3.5 mph 3.5 mph 48 % 0 in
12:41 48.6 °F 29.7 °F 29.9 in ENE 4.6 mph 4.6 mph 48 % 0 in
12:46 49.5 °F 30.6 °F 29.9 in NNE 2.6 mph 2.6 mph 48 % 0 in
12:51 49.6 °F 29.7 °F 29.9 in ESE 3.5 mph 3.5 mph 46 % 0 in
13:01 49.6 °F 29.1 °F 29.9 in WSW 4.6 mph 4.6 mph 45 % 0 in
13:06 50.5 °F 30.9 °F 29.9 in ENE 1.4 mph 1.4 mph 47 % 0 in
13:11 51.3 °F 32.2 °F 29.9 in NNW 5.8 mph 5.8 mph 48 % 0 in
13:21 51.3 °F 30.6 °F 29.9 in South 3.5 mph 3.5 mph 45 % 0 in
13:26 51.8 °F 30 °F 29.9 in NNW 3.5 mph 3.5 mph 43 % 0 in
13:31 52 °F 30.7 °F 29.9 in West 2.3 mph 2.3 mph 44 % 0 in
13:36 52.2 °F 30.4 °F 29.9 in WSW 4.3 mph 4.3 mph 43 % 0 in
13:41 52.3 °F 30.9 °F 29.9 in SW 4.6 mph 4.6 mph 44 % 0 in
13:46 52.5 °F 30.6 °F 29.9 in SW 2.3 mph 2.3 mph 43 % 0 in
13:56 52.9 °F 30.9 °F 29.9 in WSW 3.5 mph 3.5 mph 43 % 0 in
14:06 52.5 °F 30 °F 29.9 in WSW 3.5 mph 3.5 mph 42 % 0 in
14:11 52.7 °F 29.7 °F 29.9 in WSW 5.8 mph 5.8 mph 41 % 0 in
14:16 52.7 °F 29.7 °F 29.9 in NW 4.6 mph 4.6 mph 41 % 0 in
14:21 52.7 °F 29.7 °F 29.9 in WNW 7.4 mph 7.4 mph 41 % 0 in
14:26 52.7 °F 28.4 °F 29.9 in NW 5.8 mph 5.8 mph 39 % 0 in
14:31 52.7 °F 28.4 °F 29.9 in WSW 5.6 mph 5.6 mph 39 % 0 in
14:36 52.7 °F 27.9 °F 29.9 in WSW 9.2 mph 9.2 mph 38 % 0 in
14:41 52.9 °F 27.9 °F 29.9 in WSW 7.6 mph 7.6 mph 38 % 0 in
15:01 53.6 °F 27.3 °F 29.9 in SW 4.6 mph 4.6 mph 36 % 0 in
15:06 53.4 °F 27.1 °F 29.9 in SW 9.2 mph 9.2 mph 36 % 0 in
15:21 53.1 °F 25.3 °F 29.9 in West 4.6 mph 4.6 mph 34 % 0 in
15:26 53.2 °F 25.5 °F 29.9 in West 3.6 mph 3.6 mph 34 % 0 in
15:31 53.1 °F 25.3 °F 29.9 in WSW 3.5 mph 3.5 mph 34 % 0 in
15:36 53.2 °F 25.5 °F 29.9 in West 2.4 mph 2.6 mph 34 % 0 in
15:41 53.1 °F 25.3 °F 29.9 in West 4.6 mph 4.6 mph 34 % 0 in
15:46 53.1 °F 25.3 °F 29.9 in West 3.5 mph 3.5 mph 34 % 0 in
15:51 52.9 °F 25.2 °F 29.9 in West 2.6 mph 2.6 mph 34 % 0 in
16:01 52.5 °F 25 °F 29.9 in West 5.8 mph 5.8 mph 34 % 0 in
16:06 52.2 °F 24.6 °F 29.9 in WSW 9.2 mph 9.2 mph 34 % 0 in
16:11 51.6 °F 23.4 °F 29.9 in ENE 5.8 mph 5.8 mph 33 % 0 in
16:16 51.6 °F 23.4 °F 29.9 in WSW 3.6 mph 3.6 mph 33 % 0 in
16:21 51.6 °F 23.4 °F 29.9 in West 5.8 mph 5.8 mph 33 % 0 in
16:26 51.4 °F 23.4 °F 29.9 in WSW 3.5 mph 3.5 mph 33 % 0 in
16:36 50.4 °F 21.6 °F 29.9 in West 5.8 mph 5.9 mph 32 % 0 in
16:41 50.4 °F 21.6 °F 29.9 in SW 4.6 mph 4.6 mph 32 % 0 in
16:46 50 °F 21.4 °F 29.9 in West 3.5 mph 3.5 mph 32 % 0 in
16:51 49.8 °F 21.7 °F 29.9 in West 3.5 mph 3.5 mph 33 % 0 in
16:56 49.5 °F 21.6 °F 29.9 in West 3.5 mph 3.5 mph 33 % 0 in
17:11 48.2 °F 20.5 °F 29.9 in WSW 5.8 mph 5.8 mph 33 % 0 in
17:16 47.8 °F 20.1 °F 29.9 in West 2.3 mph 2.3 mph 33 % 0 in
17:21 47.3 °F 19.6 °F 29.9 in NW 1.2 mph   33 % 0 in
17:26 46.9 °F 19.2 °F 29.9 in NW 1.2 mph 1.4 mph 33 % 0 in
17:31 46.6 °F 18.3 °F 29.9 in Calm     32 % 0 in
17:42 45.9 °F 18.3 °F 29.9 in WNW 2 mph   33 % 0 in
17:47 45.7 °F 18.1 °F 29.9 in WNW 1.2 mph 1.2 mph 33 % 0 in
17:52 45.3 °F 18 °F 29.9 in WSW 1.2 mph   33 % 0 in
17:57 45.1 °F 17.8 °F 29.9 in Calm     33 % 0 in
18:02 45 °F 17.4 °F 29.9 in Calm     33 % 0 in
18:07 44.6 °F 17.2 °F 29.9 in Calm     33 % 0 in
18:12 44.4 °F 17.1 °F 29.9 in Calm     33 % 0 in
18:22 43.9 °F 16.5 °F 29.9 in NW 1.2 mph 1.2 mph 33 % 0 in
18:27 43.5 °F 16.3 °F 29.9 in Calm     33 % 0 in
18:32 43.3 °F 16.2 °F 29.9 in NW 1.2 mph   33 % 0 in
18:37 43.3 °F 16.2 °F 29.9 in Calm     33 % 0 in
18:42 43.2 °F 16 °F 29.9 in Calm     33 % 0 in
18:47 43 °F 15.8 °F 29.9 in NW 1.2 mph 1.4 mph 33 % 0 in
18:52 43.2 °F 16 °F 29.9 in NNE 2.3 mph 2.3 mph 33 % 0 in
18:57 43.3 °F 16.2 °F 29.9 in East 2.3 mph 2.4 mph 33 % 0 in
19:02 43.7 °F 16.3 °F 29.9 in SW 2.3 mph 2.3 mph 33 % 0 in
19:07 43.3 °F 16.2 °F 29.9 in Calm     33 % 0 in
19:12 43.2 °F 16 °F 29.9 in SE 2.3 mph 2.3 mph 33 % 0 in
19:17 43.2 °F 16 °F 29.9 in SSE 1.2 mph   33 % 0 in
19:27 42.4 °F 15.3 °F 29.9 in West 1.2 mph   33 % 0 in
19:32 42.1 °F 15.1 °F 29.9 in West 1.2 mph 1.4 mph 33 % 0 in
19:42 41.4 °F 14.4 °F 29.9 in WSW 1.2 mph 1.2 mph 33 % 0 in
19:47 41.2 °F 14.2 °F 30 in West 1.2 mph 1.2 mph 33 % 0 in
19:52 41.2 °F 14.2 °F 30 in West 1.4 mph 1.4 mph 33 % 0 in
20:02 41.7 °F 14.7 °F 29.9 in WNW 1.4 mph 1.4 mph 33 % 0 in
20:07 41.4 °F 15.1 °F 29.9 in WSW 1.2 mph   34 % 0 in
20:12 41 °F 14.7 °F 29.9 in WSW 1.2 mph 1.2 mph 34 % 0 in
20:17 40.3 °F 14.2 °F 29.9 in WSW 1.6 mph 1.6 mph 34 % 0 in
20:22 40.3 °F 14.2 °F 29.9 in Calm     34 % 0 in
20:27 40.3 °F 14.2 °F 29.9 in Calm     34 % 0 in
20:32 41.2 °F 14.9 °F 29.9 in West 2.3 mph 2.3 mph 34 % 0 in
20:37 41.2 °F 14.9 °F 29.9 in Calm     34 % 0 in
20:48 41.4 °F 15.1 °F 29.9 in ENE 3.1 mph   34 % 0 in
20:53 41.4 °F 15.6 °F 29.9 in NE 2.3 mph   35 % 0 in
20:58 41.5 °F 16 °F 29.9 in ENE 3.5 mph 3.5 mph 35 % 0 in
21:03 41.5 °F 16.5 °F 29.9 in SSE 3.5 mph 3.5 mph 36 % 0 in
21:13 42.6 °F 17.4 °F 29.9 in NNE 4.6 mph 4.6 mph 36 % 0 in
21:18 42.1 °F 17.1 °F 29.9 in NNW 2.4 mph 2.4 mph 36 % 0 in
21:23 41.4 °F 16.3 °F 29.9 in East 2.9 mph 2.9 mph 36 % 0 in
21:28 41 °F 16 °F 29.9 in NNE 2.3 mph 2.3 mph 36 % 0 in
21:33 40.3 °F 15.4 °F 29.9 in ESE 3.5 mph 3.5 mph 36 % 0 in
21:39 40.1 °F 15.3 °F 29.9 in ESE 2.3 mph 2.3 mph 36 % 0 in
21:44 39.7 °F 14.9 °F 29.9 in SE 1.2 mph   36 % 0 in
21:54 38.8 °F 14.2 °F 29.9 in NNE 3.5 mph 3.5 mph 36 % 0 in
21:59 38.7 °F 14 °F 29.9 in ENE 3.1 mph 3.1 mph 36 % 0 in
22:04 38.8 °F 14.7 °F 29.9 in NNE 3.5 mph 3.5 mph 37 % 0 in
22:09 38.8 °F 14.7 °F 29.9 in ENE 1.2 mph   37 % 0 in
22:14 39 °F 14.9 °F 29.9 in ENE 2.3 mph 2.3 mph 37 % 0 in
22:19 38.8 °F 14.7 °F 29.9 in ESE 2 mph 2 mph 37 % 0 in
22:24 39 °F 15.4 °F 29.9 in East 2.3 mph 2.3 mph 38 % 0 in
22:39 38.1 °F 14.7 °F 30 in NE 3.5 mph 3.5 mph 38 % 0 in
22:49 37.9 °F 15.1 °F 29.9 in WSW 1.2 mph 1.2 mph 39 % 0 in
22:59 38.5 °F 15.6 °F 29.9 in West 2.3 mph 2.3 mph 39 % 0 in
23:04 38.8 °F 16.5 °F 29.9 in WNW 3.1 mph 3.1 mph 40 % 0 in
23:09 39.4 °F 17.6 °F 29.9 in WSW 3.5 mph 3.5 mph 41 % 0 in
23:19 39.7 °F 18.5 °F 29.9 in WSW 1.6 mph 1.6 mph 42 % 0 in
23:24 39.7 °F 18.5 °F 29.9 in WNW 2.3 mph 2.3 mph 42 % 0 in
23:34 39.7 °F 19 °F 29.9 in NW 2.3 mph 2.3 mph 43 % 0 in
23:39 39.7 °F 19.6 °F 29.9 in ENE 2.3 mph 2.3 mph 44 % 0 in
23:49 39.9 °F 19.8 °F 29.9 in WSW 4.6 mph 4.6 mph 44 % 0 in
Meteo Sesrovires
Elogis d' Weather Underground - 3.75 mb

Guio original per  Jim McMurry - jmcmurry@mwt.net Adaptat per a la plantilla per  Wim van der Kuil - Leuven-Template.eu

Trobareu la nostra informacio del temps tambe a:

Weather Underground

AWEKAS